»·PEaware :: N303PW KCRQ-KLGB

N303PW :: KCRQ-KLGB

FLIGHT INFORMATION

Flight Status: Arrived
Operator: Privately registered:
United States
More flights under this callsign
Pilot: Paul W. (27512)
Aircraft: CESSNA 172 SKYHAWK
(C172)
More flights by this aircraft type
Origin: KCRQ McClellan-Palomar
United States
Destination: KLGB Long Beach
United States
More flights between these airports :: More routes between these airports
Route: KCRQ VPOCN VPLQM KLGB
File this flight plan on PilotEdge
Remarks:
Altitude:
(Current/Filed)
2,500ft
Speed:
(Current/Filed)
120kts
Departed: 17-Feb-20 08:15 PM
Arrived: 17-Feb-20 08:51 PM
Distance/Time
Traveled:
60nm/0:35
Distance/Time
To Go:
Arrived

Flight Plot

Page will automatically refresh every two minutes.

Flight plan parsing failed; only flown route is shown


Map Options




Map Legend


Flown Route
Filed Route
Departure Airport
Arrival Airport
Navaid (VOR, NDB)
Fix

Horizontal Profiles

Position Reports

Time Latitude Longitude Heading Altitude Ground
Speed
17-Feb-20 19:51 33.126424 -117.276667 47 335ft 0kts
17-Feb-20 19:52 33.126424 -117.276667 47 335ft 0kts
17-Feb-20 19:53 33.126424 -117.276667 47 335ft 0kts
17-Feb-20 19:54 33.126424 -117.276667 47 335ft 0kts
17-Feb-20 19:55 33.126424 -117.276667 47 335ft 0kts
17-Feb-20 19:56 33.126424 -117.276667 47 335ft 0kts
17-Feb-20 19:57 33.126424 -117.276667 47 335ft 0kts
17-Feb-20 19:58 33.126424 -117.276667 47 335ft 0kts
17-Feb-20 19:58 33.126424 -117.276667 47 335ft 0kts
17-Feb-20 20:00 33.126424 -117.276667 47 335ft 0kts
17-Feb-20 20:01 33.126424 -117.276667 47 335ft 0kts
17-Feb-20 20:01 33.126424 -117.276667 47 335ft 0kts
17-Feb-20 20:03 33.126424 -117.276667 47 335ft 0kts
17-Feb-20 20:04 33.126424 -117.276667 47 335ft 0kts
17-Feb-20 20:04 33.126424 -117.276667 47 335ft 0kts
17-Feb-20 20:05 33.126424 -117.276667 47 335ft 0kts
17-Feb-20 20:06 33.126424 -117.276667 47 335ft 0kts
17-Feb-20 20:07 33.126424 -117.276667 47 335ft 0kts
17-Feb-20 20:08 33.126424 -117.276667 47 335ft 0kts
17-Feb-20 20:09 33.126424 -117.276667 47 335ft 0kts
17-Feb-20 20:10 33.126424 -117.276667 47 335ft 0kts
17-Feb-20 20:11 33.128477 -117.273651 79 335ft 32kts
17-Feb-20 20:12 33.128738 -117.272367 47 335ft 0kts
17-Feb-20 20:13 33.128989 -117.272657 325 335ft 21kts
17-Feb-20 20:14 33.123694 -117.295356 244 910ft 90kts
17-Feb-20 20:15 33.125576 -117.320808 312 1816ft 89kts
17-Feb-20 20:16 33.136810 -117.348045 275 2480ft 103kts
17-Feb-20 20:17 33.153365 -117.370361 340 2521ft 109kts
17-Feb-20 20:18 33.182654 -117.383240 340 2484ft 112kts
17-Feb-20 20:19 33.208716 -117.402850 312 2484ft 112kts
17-Feb-20 20:20 33.228456 -117.431969 308 2484ft 112kts
17-Feb-20 20:21 33.248253 -117.460886 310 2484ft 112kts
17-Feb-20 20:22 33.268377 -117.489617 310 2484ft 112kts
17-Feb-20 20:23 33.288513 -117.518373 310 2484ft 112kts
17-Feb-20 20:24 33.308636 -117.547145 310 2484ft 112kts
17-Feb-20 20:25 33.328769 -117.575885 310 2484ft 112kts
17-Feb-20 20:26 33.348837 -117.604637 310 2484ft 112kts
17-Feb-20 20:27 33.368960 -117.633470 310 2483ft 112kts
17-Feb-20 20:28 33.388966 -117.662160 309 2482ft 112kts
17-Feb-20 20:29 33.408906 -117.690774 309 2481ft 111kts
17-Feb-20 20:30 33.428793 -117.719315 309 2480ft 111kts
17-Feb-20 20:31 33.448787 -117.747540 309 2479ft 111kts
17-Feb-20 20:32 33.468497 -117.776081 308 2477ft 111kts
17-Feb-20 20:33 33.488092 -117.804619 308 2476ft 111kts
17-Feb-20 20:34 33.507896 -117.833175 308 2475ft 111kts
17-Feb-20 20:35 33.527709 -117.861750 308 2475ft 111kts
17-Feb-20 20:36 33.547551 -117.890385 308 2475ft 111kts
17-Feb-20 20:37 33.567290 -117.918892 308 2475ft 111kts
17-Feb-20 20:38 33.587005 -117.947388 309 2475ft 111kts
17-Feb-20 20:39 33.606678 -117.975842 309 2475ft 111kts
17-Feb-20 20:40 33.626389 -118.004373 309 2475ft 111kts
17-Feb-20 20:41 33.646198 -118.033071 309 2475ft 111kts
17-Feb-20 20:42 33.666077 -118.061892 309 2475ft 112kts
17-Feb-20 20:43 33.685996 -118.090797 309 2475ft 112kts
17-Feb-20 20:44 33.705960 -118.119769 311 2475ft 112kts
17-Feb-20 20:45 33.735409 -118.122260 17 2479ft 110kts
17-Feb-20 20:46 33.764743 -118.113342 12 1828ft 108kts
17-Feb-20 20:47 33.793276 -118.105924 12 1026ft 89kts
17-Feb-20 20:48 33.810422 -118.107496 295 818ft 76kts
17-Feb-20 20:49 33.813664 -118.131704 272 328ft 71kts
17-Feb-20 20:50 33.813821 -118.151000 271 39ft 35kts
17-Feb-20 20:51 33.813052 -118.157259 268 48ft 5kts
17-Feb-20 20:52 33.813052 -118.157271 268 48ft 0kts
17-Feb-20 20:53 33.812582 -118.158118 16 49ft 0kts
17-Feb-20 20:54 33.812584 -118.158118 6 49ft 0kts
17-Feb-20 20:55 33.812584 -118.158118 6 49ft 0kts
17-Feb-20 20:56 33.812584 -118.158118 6 49ft 0kts
17-Feb-20 20:57 33.812584 -118.158118 6 49ft 0kts
17-Feb-20 20:58 33.812584 -118.158118 6 49ft 0kts
17-Feb-20 20:59 33.812584 -118.158118 6 49ft 0kts
17-Feb-20 21:00 33.812584 -118.158118 6 49ft 0kts

Navigation Log

Ident Type
Flight plan parsing failed, navigation log unavailable